Portada
METAR-TAF:

METAR-TAF

Aeropuertos :

Denison Municipal Airport

Denison, Iowa, Estados Unidos

latitud: 41-59N, longitud: 095-23W, altitud: 388 m

Observación

El informe se hizo hace 12 minutos, a las 01:35 UTC
Viento 11 kt del norte-noroeste con ráfagas de 17 kt
Temperatura 20°C
Humedad 35%
Presión 1018 hPa
Visibilidad: 16.1 km
Cielo despejado

METAR: KDNS 290135Z AUTO 33011G17KT 10SM CLR 20/04 A3005 RMK AO2

Hora: 20:47 (01:47 UTC)


TAF: falta

Observaciones y pronósticos meteorológicos de más de 4000 aeropuertos (mensajes METAR y TAF).

Los puntos amarillos y rojos representan las estaciones disponibles.

Ponga el ratón en el punto deseado para ver el nombre de la estación.

Haga clic para ver las observaciones y los pronósticos meteorológicos.

Para cambiar el mapa : haga clic en los botones verdes con una cruz de color negro para hacer un zoom, en el botón verde con un guión para alejar o en las flechas verdes para mapas adyacentes.


METAR-TAF: